Main page
METAR-TAF:

METAR-TAF

Airports :

Deauville – Normandie Airport

Deauville, France

latitude: 49-21-55N, longitude: 000-09-16E, elevation: 146 m

Current weather observation

The report was made 37 minutes ago, at 08:30 UTC
Wind 3 kt from variable directions
Temperature 16°C
Humidity 82%
Pressure 1029 hPa
Visibility 10 km or more
Few clouds at a height of 1600 ft

METAR: LFRG 210830Z AUTO VRB03KT 9999 FEW016 16/13 Q1029 NOSIG

Time: 11:07 (09:07 UTC)

Forecast

The report was made 1 hour and 7 minutes ago, at 08:00 UTC
Forecast valid from 21 at 09 UTC to 21 at 18 UTC
Wind 4 kt from variable directions
Visibility 10 km or more
no clouds below 1500 m and no cumulonimbus
Becoming
from 21 at 13 UTC to 21 at 15 UTC
Wind 8 kt from the North/Northwest

TAF: LFRG 210800Z 2109/2118 VRB04KT CAVOK BECMG 2113/2115 34008KT

Weather observations and forecasts of more than 4000 airports (METAR and TAF reports).

The available stations are represented by yellow and red dots on the map.

Hover mouse over dot to see the name of the station.

Then click to see weather observations and forecasts.

To change the map : click on the green buttons with a black cross to zoom in, on the green button with a dash to zoom out, or on the green arrows for adjacent maps.


METAR-TAF: